Terminal Aerodrome Forecast
Issued by NWS

Home | Current Version | Previous Version | Text Only | Print | Product List | Glossary On
Versions: 1 2 3 4 5 6 7 8 9 10 11 12 13 14 15 16 17 18 19 20 21 22 23 24 25 26 27 28 29 30 31 32 33 34
964
FTUS46 KOTX 051725
TAFSFF
TAF
KSFF 051725Z 0518/0618 06003KT P6SM SCT022 BKN080 BKN200
     FM060600 20008KT 6SM -RA SCT020 OVC035 WS015/24045KT
     FM060800 22017G26KT P6SM -SHRA SCT022 BKN035 OVC050
     FM061500 24011G18KT P6SM BKN080=

USA.gov is the U.S. government's official web portal to all federal, state and local government web resources and services.